sensor_id;sensor_type;location;lat;lon;timestamp;temperature;humidity
60860;DHT22;46694;54.382;9.708;2024-02-14T00:02:00;7.00;99.90
60860;DHT22;46694;54.382;9.708;2024-02-14T00:04:26;7.00;99.90
60860;DHT22;46694;54.382;9.708;2024-02-14T00:06:52;7.00;99.90
60860;DHT22;46694;54.382;9.708;2024-02-14T00:09:18;7.00;99.90
60860;DHT22;46694;54.382;9.708;2024-02-14T00:11:44;7.00;99.90
60860;DHT22;46694;54.382;9.708;2024-02-14T00:14:10;7.00;99.90
60860;DHT22;46694;54.382;9.708;2024-02-14T00:16:36;7.00;99.90
60860;DHT22;46694;54.382;9.708;2024-02-14T00:19:04;7.00;99.90
60860;DHT22;46694;54.382;9.708;2024-02-14T00:21:31;6.90;99.90
60860;DHT22;46694;54.382;9.708;2024-02-14T00:23:57;6.90;99.90
60860;DHT22;46694;54.382;9.708;2024-02-14T00:26:24;6.90;99.90
60860;DHT22;46694;54.382;9.708;2024-02-14T00:28:50;6.90;99.90
60860;DHT22;46694;54.382;9.708;2024-02-14T00:31:16;6.80;99.90
60860;DHT22;46694;54.382;9.708;2024-02-14T00:33:45;6.80;99.90
60860;DHT22;46694;54.382;9.708;2024-02-14T00:36:11;6.80;99.90
60860;DHT22;46694;54.382;9.708;2024-02-14T00:38:39;6.80;99.90
60860;DHT22;46694;54.382;9.708;2024-02-14T00:41:05;6.70;99.90
60860;DHT22;46694;54.382;9.708;2024-02-14T00:43:31;6.70;99.90
60860;DHT22;46694;54.382;9.708;2024-02-14T00:45:57;6.70;99.90
60860;DHT22;46694;54.382;9.708;2024-02-14T00:48:23;6.70;99.90
60860;DHT22;46694;54.382;9.708;2024-02-14T00:50:49;6.60;99.90
60860;DHT22;46694;54.382;9.708;2024-02-14T00:53:17;6.60;99.90
60860;DHT22;46694;54.382;9.708;2024-02-14T00:55:43;6.60;99.90
60860;DHT22;46694;54.382;9.708;2024-02-14T00:58:12;6.60;99.90
60860;DHT22;46694;54.382;9.708;2024-02-14T01:00:38;6.60;99.90
60860;DHT22;46694;54.382;9.708;2024-02-14T01:03:04;6.60;99.90
60860;DHT22;46694;54.382;9.708;2024-02-14T01:05:31;6.50;99.90
60860;DHT22;46694;54.382;9.708;2024-02-14T01:07:57;6.50;99.90
60860;DHT22;46694;54.382;9.708;2024-02-14T01:10:23;6.50;99.90
60860;DHT22;46694;54.382;9.708;2024-02-14T01:12:48;6.50;99.90
60860;DHT22;46694;54.382;9.708;2024-02-14T01:15:14;6.50;99.90
60860;DHT22;46694;54.382;9.708;2024-02-14T01:17:40;6.50;99.90
60860;DHT22;46694;54.382;9.708;2024-02-14T01:20:06;6.50;99.90
60860;DHT22;46694;54.382;9.708;2024-02-14T01:22:35;6.50;99.90
60860;DHT22;46694;54.382;9.708;2024-02-14T01:25:01;6.50;99.90
60860;DHT22;46694;54.382;9.708;2024-02-14T01:27:30;6.50;99.90
60860;DHT22;46694;54.382;9.708;2024-02-14T01:29:56;6.50;99.90
60860;DHT22;46694;54.382;9.708;2024-02-14T01:32:23;6.50;99.90
60860;DHT22;46694;54.382;9.708;2024-02-14T01:34:48;6.50;99.90
60860;DHT22;46694;54.382;9.708;2024-02-14T01:37:14;6.50;99.90
60860;DHT22;46694;54.382;9.708;2024-02-14T01:39:46;6.40;99.90
60860;DHT22;46694;54.382;9.708;2024-02-14T01:42:12;6.40;99.90
60860;DHT22;46694;54.382;9.708;2024-02-14T01:44:38;6.40;99.90
60860;DHT22;46694;54.382;9.708;2024-02-14T01:47:04;6.40;99.90
60860;DHT22;46694;54.382;9.708;2024-02-14T01:49:31;6.40;99.90
60860;DHT22;46694;54.382;9.708;2024-02-14T01:52:01;6.40;99.90
60860;DHT22;46694;54.382;9.708;2024-02-14T01:54:29;6.40;99.90
60860;DHT22;46694;54.382;9.708;2024-02-14T01:56:57;6.40;99.90
60860;DHT22;46694;54.382;9.708;2024-02-14T01:59:24;6.30;99.90
60860;DHT22;46694;54.382;9.708;2024-02-14T02:01:50;6.30;99.90
60860;DHT22;46694;54.382;9.708;2024-02-14T02:04:19;6.30;99.90
60860;DHT22;46694;54.382;9.708;2024-02-14T02:06:46;6.30;99.90
60860;DHT22;46694;54.382;9.708;2024-02-14T02:09:12;6.30;99.90
60860;DHT22;46694;54.382;9.708;2024-02-14T02:11:49;6.30;99.90
60860;DHT22;46694;54.382;9.708;2024-02-14T02:14:16;6.20;99.90
60860;DHT22;46694;54.382;9.708;2024-02-14T02:16:45;6.20;99.90
60860;DHT22;46694;54.382;9.708;2024-02-14T02:19:11;6.20;99.90
60860;DHT22;46694;54.382;9.708;2024-02-14T02:21:37;6.20;99.90
60860;DHT22;46694;54.382;9.708;2024-02-14T02:24:03;6.20;99.90
60860;DHT22;46694;54.382;9.708;2024-02-14T02:26:30;6.20;99.90
60860;DHT22;46694;54.382;9.708;2024-02-14T02:28:56;6.20;99.90
60860;DHT22;46694;54.382;9.708;2024-02-14T02:31:22;6.20;99.90
60860;DHT22;46694;54.382;9.708;2024-02-14T02:33:48;6.20;99.90
60860;DHT22;46694;54.382;9.708;2024-02-14T02:36:15;6.20;99.90
60860;DHT22;46694;54.382;9.708;2024-02-14T02:38:41;6.10;99.90
60860;DHT22;46694;54.382;9.708;2024-02-14T02:41:10;6.10;99.90
60860;DHT22;46694;54.382;9.708;2024-02-14T02:43:37;6.10;99.90
60860;DHT22;46694;54.382;9.708;2024-02-14T02:46:03;6.10;99.90
60860;DHT22;46694;54.382;9.708;2024-02-14T02:48:30;6.10;99.90
60860;DHT22;46694;54.382;9.708;2024-02-14T02:50:56;6.10;99.90
60860;DHT22;46694;54.382;9.708;2024-02-14T02:53:22;6.10;99.90
60860;DHT22;46694;54.382;9.708;2024-02-14T02:55:49;6.20;99.90
60860;DHT22;46694;54.382;9.708;2024-02-14T02:58:17;6.10;99.90
60860;DHT22;46694;54.382;9.708;2024-02-14T03:00:42;6.20;99.90
60860;DHT22;46694;54.382;9.708;2024-02-14T03:03:08;6.20;99.90
60860;DHT22;46694;54.382;9.708;2024-02-14T03:05:34;6.20;99.90
60860;DHT22;46694;54.382;9.708;2024-02-14T03:08:00;6.10;99.90
60860;DHT22;46694;54.382;9.708;2024-02-14T03:10:26;6.10;99.90
60860;DHT22;46694;54.382;9.708;2024-02-14T03:12:53;6.10;99.90
60860;DHT22;46694;54.382;9.708;2024-02-14T03:15:19;6.10;99.90
60860;DHT22;46694;54.382;9.708;2024-02-14T03:17:45;6.10;99.90
60860;DHT22;46694;54.382;9.708;2024-02-14T03:20:12;6.10;99.90
60860;DHT22;46694;54.382;9.708;2024-02-14T03:22:41;6.10;99.90
60860;DHT22;46694;54.382;9.708;2024-02-14T03:25:12;6.10;99.90
60860;DHT22;46694;54.382;9.708;2024-02-14T03:27:44;6.10;99.90
60860;DHT22;46694;54.382;9.708;2024-02-14T03:30:13;6.10;99.90
60860;DHT22;46694;54.382;9.708;2024-02-14T03:32:49;6.10;99.90
60860;DHT22;46694;54.382;9.708;2024-02-14T03:35:22;6.00;99.90
60860;DHT22;46694;54.382;9.708;2024-02-14T03:37:49;6.10;99.90
60860;DHT22;46694;54.382;9.708;2024-02-14T03:40:17;6.10;99.90
60860;DHT22;46694;54.382;9.708;2024-02-14T03:42:43;6.00;99.90
60860;DHT22;46694;54.382;9.708;2024-02-14T03:45:09;6.10;99.90
60860;DHT22;46694;54.382;9.708;2024-02-14T03:47:36;6.00;99.90
60860;DHT22;46694;54.382;9.708;2024-02-14T03:50:06;6.00;99.90
60860;DHT22;46694;54.382;9.708;2024-02-14T03:52:33;6.10;99.90
60860;DHT22;46694;54.382;9.708;2024-02-14T03:54:59;6.10;99.90
60860;DHT22;46694;54.382;9.708;2024-02-14T03:57:26;6.10;99.90
60860;DHT22;46694;54.382;9.708;2024-02-14T03:59:54;6.00;99.90
60860;DHT22;46694;54.382;9.708;2024-02-14T04:02:24;6.00;99.90
60860;DHT22;46694;54.382;9.708;2024-02-14T04:04:53;6.00;99.90
60860;DHT22;46694;54.382;9.708;2024-02-14T04:07:19;6.00;99.90
60860;DHT22;46694;54.382;9.708;2024-02-14T04:09:45;6.00;99.90
60860;DHT22;46694;54.382;9.708;2024-02-14T04:12:11;6.00;99.90
60860;DHT22;46694;54.382;9.708;2024-02-14T04:14:37;5.90;99.90
60860;DHT22;46694;54.382;9.708;2024-02-14T10:31:59;7.30;99.90
60860;DHT22;46694;54.382;9.708;2024-02-14T10:34:26;8.10;99.90
60860;DHT22;46694;54.382;9.708;2024-02-14T10:36:53;8.00;99.90
60860;DHT22;46694;54.382;9.708;2024-02-14T10:39:22;8.00;99.90
60860;DHT22;46694;54.382;9.708;2024-02-14T10:41:51;7.90;99.90
60860;DHT22;46694;54.382;9.708;2024-02-14T10:44:17;7.90;99.90
60860;DHT22;46694;54.382;9.708;2024-02-14T10:46:44;7.80;99.90
60860;DHT22;46694;54.382;9.708;2024-02-14T10:49:12;7.80;99.90
60860;DHT22;46694;54.382;9.708;2024-02-14T10:51:43;7.80;99.90
60860;DHT22;46694;54.382;9.708;2024-02-14T10:54:11;7.70;99.90
60860;DHT22;46694;54.382;9.708;2024-02-14T10:56:42;7.80;99.90
60860;DHT22;46694;54.382;9.708;2024-02-14T10:59:18;7.80;99.90
60860;DHT22;46694;54.382;9.708;2024-02-14T11:01:45;7.80;99.90
60860;DHT22;46694;54.382;9.708;2024-02-14T11:04:12;7.80;99.90
60860;DHT22;46694;54.382;9.708;2024-02-14T11:06:48;7.80;99.90
60860;DHT22;46694;54.382;9.708;2024-02-14T11:09:18;7.80;99.90
60860;DHT22;46694;54.382;9.708;2024-02-14T11:11:45;7.80;99.90
60860;DHT22;46694;54.382;9.708;2024-02-14T11:14:23;7.90;99.90
60860;DHT22;46694;54.382;9.708;2024-02-14T11:16:52;7.90;99.90
60860;DHT22;46694;54.382;9.708;2024-02-14T11:19:18;7.90;99.90
60860;DHT22;46694;54.382;9.708;2024-02-14T11:21:46;8.00;99.90
60860;DHT22;46694;54.382;9.708;2024-02-14T11:24:14;8.00;99.90
60860;DHT22;46694;54.382;9.708;2024-02-14T11:26:51;8.10;99.90
60860;DHT22;46694;54.382;9.708;2024-02-14T11:29:19;8.10;99.90
60860;DHT22;46694;54.382;9.708;2024-02-14T11:31:45;8.20;99.90
60860;DHT22;46694;54.382;9.708;2024-02-14T11:34:12;8.20;99.90
60860;DHT22;46694;54.382;9.708;2024-02-14T11:36:41;8.30;99.90
60860;DHT22;46694;54.382;9.708;2024-02-14T11:39:08;8.30;99.90
60860;DHT22;46694;54.382;9.708;2024-02-14T11:41:34;8.40;99.90
60860;DHT22;46694;54.382;9.708;2024-02-14T11:44:06;8.40;99.90
60860;DHT22;46694;54.382;9.708;2024-02-14T11:46:34;8.50;99.90
60860;DHT22;46694;54.382;9.708;2024-02-14T11:49:02;8.50;99.90
60860;DHT22;46694;54.382;9.708;2024-02-14T11:51:50;8.50;99.90
60860;DHT22;46694;54.382;9.708;2024-02-14T11:54:16;8.50;99.90
60860;DHT22;46694;54.382;9.708;2024-02-14T11:56:43;8.60;99.90
60860;DHT22;46694;54.382;9.708;2024-02-14T11:59:09;8.70;99.90
60860;DHT22;46694;54.382;9.708;2024-02-14T12:01:36;8.70;99.90
60860;DHT22;46694;54.382;9.708;2024-02-14T12:04:07;8.70;99.90
60860;DHT22;46694;54.382;9.708;2024-02-14T12:06:38;8.80;99.90
60860;DHT22;46694;54.382;9.708;2024-02-14T12:09:41;8.80;99.90
60860;DHT22;46694;54.382;9.708;2024-02-14T12:12:07;8.90;99.90
60860;DHT22;46694;54.382;9.708;2024-02-14T12:14:33;9.00;99.90
60860;DHT22;46694;54.382;9.708;2024-02-14T12:17:00;9.00;99.90
60860;DHT22;46694;54.382;9.708;2024-02-14T12:19:28;9.10;99.90
60860;DHT22;46694;54.382;9.708;2024-02-14T12:21:54;9.20;99.90
60860;DHT22;46694;54.382;9.708;2024-02-14T12:24:24;9.20;99.90
60860;DHT22;46694;54.382;9.708;2024-02-14T12:26:54;9.20;99.90
60860;DHT22;46694;54.382;9.708;2024-02-14T12:29:23;9.20;99.90
60860;DHT22;46694;54.382;9.708;2024-02-14T12:31:49;9.30;99.90
60860;DHT22;46694;54.382;9.708;2024-02-14T12:34:15;9.30;99.90
60860;DHT22;46694;54.382;9.708;2024-02-14T12:36:41;9.30;99.90
60860;DHT22;46694;54.382;9.708;2024-02-14T12:39:06;9.30;99.90
60860;DHT22;46694;54.382;9.708;2024-02-14T12:41:34;9.40;99.90
60860;DHT22;46694;54.382;9.708;2024-02-14T12:44:02;9.50;99.90
60860;DHT22;46694;54.382;9.708;2024-02-14T12:46:28;9.50;99.90
60860;DHT22;46694;54.382;9.708;2024-02-14T12:48:54;9.50;99.90
60860;DHT22;46694;54.382;9.708;2024-02-14T12:51:21;9.50;99.90
60860;DHT22;46694;54.382;9.708;2024-02-14T12:53:47;9.60;99.90
60860;DHT22;46694;54.382;9.708;2024-02-14T12:56:13;9.60;99.90
60860;DHT22;46694;54.382;9.708;2024-02-14T12:58:39;9.60;99.90
60860;DHT22;46694;54.382;9.708;2024-02-14T13:01:05;9.60;99.90
60860;DHT22;46694;54.382;9.708;2024-02-14T13:03:35;9.50;99.90
60860;DHT22;46694;54.382;9.708;2024-02-14T13:06:01;9.60;99.90
60860;DHT22;46694;54.382;9.708;2024-02-14T13:08:27;9.60;99.90
60860;DHT22;46694;54.382;9.708;2024-02-14T13:10:53;9.60;99.90
60860;DHT22;46694;54.382;9.708;2024-02-14T13:13:19;9.60;99.90
60860;DHT22;46694;54.382;9.708;2024-02-14T13:15:45;9.70;99.90
60860;DHT22;46694;54.382;9.708;2024-02-14T13:18:11;9.70;99.90
60860;DHT22;46694;54.382;9.708;2024-02-14T13:20:37;9.70;99.90
60860;DHT22;46694;54.382;9.708;2024-02-14T13:23:04;9.70;99.90
60860;DHT22;46694;54.382;9.708;2024-02-14T13:25:35;9.70;99.90
60860;DHT22;46694;54.382;9.708;2024-02-14T13:28:02;9.70;99.90
60860;DHT22;46694;54.382;9.708;2024-02-14T13:30:29;9.70;99.90
60860;DHT22;46694;54.382;9.708;2024-02-14T13:32:55;9.60;99.90
60860;DHT22;46694;54.382;9.708;2024-02-14T13:35:21;9.60;99.90
60860;DHT22;46694;54.382;9.708;2024-02-14T13:37:47;9.60;99.90
60860;DHT22;46694;54.382;9.708;2024-02-14T13:40:13;9.60;99.90
60860;DHT22;46694;54.382;9.708;2024-02-14T13:42:40;9.70;99.90
60860;DHT22;46694;54.382;9.708;2024-02-14T13:45:06;10.00;99.90
60860;DHT22;46694;54.382;9.708;2024-02-14T13:47:37;10.10;99.90
60860;DHT22;46694;54.382;9.708;2024-02-14T13:50:08;10.10;99.90
60860;DHT22;46694;54.382;9.708;2024-02-14T13:52:35;10.10;99.90
60860;DHT22;46694;54.382;9.708;2024-02-14T13:55:02;10.10;99.90
60860;DHT22;46694;54.382;9.708;2024-02-14T13:57:33;10.20;99.90
60860;DHT22;46694;54.382;9.708;2024-02-14T14:00:02;10.20;99.90
60860;DHT22;46694;54.382;9.708;2024-02-14T14:02:28;10.10;99.90
60860;DHT22;46694;54.382;9.708;2024-02-14T14:04:54;10.20;99.90
60860;DHT22;46694;54.382;9.708;2024-02-14T14:07:43;10.20;99.90
60860;DHT22;46694;54.382;9.708;2024-02-14T14:10:09;10.20;99.90
60860;DHT22;46694;54.382;9.708;2024-02-14T14:12:35;10.20;99.90
60860;DHT22;46694;54.382;9.708;2024-02-14T14:15:02;10.20;99.90
60860;DHT22;46694;54.382;9.708;2024-02-14T14:17:28;10.20;99.90
60860;DHT22;46694;54.382;9.708;2024-02-14T14:19:54;10.20;99.90
60860;DHT22;46694;54.382;9.708;2024-02-14T14:22:20;10.30;99.90
60860;DHT22;46694;54.382;9.708;2024-02-14T14:24:47;10.30;99.90
60860;DHT22;46694;54.382;9.708;2024-02-14T14:27:13;10.30;99.90
60860;DHT22;46694;54.382;9.708;2024-02-14T14:29:40;10.30;99.90
60860;DHT22;46694;54.382;9.708;2024-02-14T14:32:10;10.30;99.90
60860;DHT22;46694;54.382;9.708;2024-02-14T14:34:36;10.30;99.90
60860;DHT22;46694;54.382;9.708;2024-02-14T14:37:05;10.30;99.90
60860;DHT22;46694;54.382;9.708;2024-02-14T14:39:31;10.20;99.90
60860;DHT22;46694;54.382;9.708;2024-02-14T14:42:09;10.20;99.90
60860;DHT22;46694;54.382;9.708;2024-02-14T14:44:35;10.20;99.90
60860;DHT22;46694;54.382;9.708;2024-02-14T14:47:02;10.20;99.90
60860;DHT22;46694;54.382;9.708;2024-02-14T14:49:28;10.20;99.90
60860;DHT22;46694;54.382;9.708;2024-02-14T14:51:53;10.30;99.90
60860;DHT22;46694;54.382;9.708;2024-02-14T14:54:19;10.30;99.90
60860;DHT22;46694;54.382;9.708;2024-02-14T14:56:45;10.30;99.90
60860;DHT22;46694;54.382;9.708;2024-02-14T14:59:12;10.30;99.90
60860;DHT22;46694;54.382;9.708;2024-02-14T15:01:37;10.30;99.90
60860;DHT22;46694;54.382;9.708;2024-02-14T15:04:04;10.30;99.90
60860;DHT22;46694;54.382;9.708;2024-02-14T15:06:31;10.30;99.90
60860;DHT22;46694;54.382;9.708;2024-02-14T15:08:57;10.30;99.90
60860;DHT22;46694;54.382;9.708;2024-02-14T15:11:23;10.30;99.90
60860;DHT22;46694;54.382;9.708;2024-02-14T15:13:49;10.30;99.90
60860;DHT22;46694;54.382;9.708;2024-02-14T15:16:15;10.30;99.90
60860;DHT22;46694;54.382;9.708;2024-02-14T15:18:41;10.30;99.90
60860;DHT22;46694;54.382;9.708;2024-02-14T15:21:10;10.30;99.90
60860;DHT22;46694;54.382;9.708;2024-02-14T15:23:36;10.30;99.90
60860;DHT22;46694;54.382;9.708;2024-02-14T15:26:02;10.20;99.90
60860;DHT22;46694;54.382;9.708;2024-02-14T15:28:30;10.20;99.90
60860;DHT22;46694;54.382;9.708;2024-02-14T15:30:59;10.20;99.90
60860;DHT22;46694;54.382;9.708;2024-02-14T15:33:44;10.20;99.90
60860;DHT22;46694;54.382;9.708;2024-02-14T15:36:10;10.20;99.90
60860;DHT22;46694;54.382;9.708;2024-02-14T15:38:45;10.20;99.90
60860;DHT22;46694;54.382;9.708;2024-02-14T15:41:10;10.20;99.90
60860;DHT22;46694;54.382;9.708;2024-02-14T15:43:37;10.20;99.90
60860;DHT22;46694;54.382;9.708;2024-02-14T15:46:03;10.10;99.90
60860;DHT22;46694;54.382;9.708;2024-02-14T15:48:29;10.10;99.90
60860;DHT22;46694;54.382;9.708;2024-02-14T15:50:55;10.10;99.90
60860;DHT22;46694;54.382;9.708;2024-02-14T15:53:21;10.10;99.90
60860;DHT22;46694;54.382;9.708;2024-02-14T15:55:47;10.10;99.90
60860;DHT22;46694;54.382;9.708;2024-02-14T15:58:13;10.10;99.90
60860;DHT22;46694;54.382;9.708;2024-02-14T16:00:40;10.10;99.90
60860;DHT22;46694;54.382;9.708;2024-02-14T16:03:07;10.10;99.90
60860;DHT22;46694;54.382;9.708;2024-02-14T16:05:33;10.10;99.90
60860;DHT22;46694;54.382;9.708;2024-02-14T16:07:59;10.10;99.90
60860;DHT22;46694;54.382;9.708;2024-02-14T16:10:25;10.10;99.90
60860;DHT22;46694;54.382;9.708;2024-02-14T16:12:50;10.10;99.90
60860;DHT22;46694;54.382;9.708;2024-02-14T16:15:17;10.10;99.90
60860;DHT22;46694;54.382;9.708;2024-02-14T16:17:44;10.10;99.90
60860;DHT22;46694;54.382;9.708;2024-02-14T16:20:12;10.10;99.90
60860;DHT22;46694;54.382;9.708;2024-02-14T16:22:39;10.10;99.90
60860;DHT22;46694;54.382;9.708;2024-02-14T16:25:08;10.10;99.90
60860;DHT22;46694;54.382;9.708;2024-02-14T16:27:35;10.10;99.90
60860;DHT22;46694;54.382;9.708;2024-02-14T16:30:02;10.10;99.90
60860;DHT22;46694;54.382;9.708;2024-02-14T16:32:34;10.10;99.90
60860;DHT22;46694;54.382;9.708;2024-02-14T16:35:01;10.10;99.90
60860;DHT22;46694;54.382;9.708;2024-02-14T16:37:27;10.00;99.90
60860;DHT22;46694;54.382;9.708;2024-02-14T16:39:53;10.00;99.90
60860;DHT22;46694;54.382;9.708;2024-02-14T16:42:20;10.10;99.90
60860;DHT22;46694;54.382;9.708;2024-02-14T16:44:46;10.10;99.90
60860;DHT22;46694;54.382;9.708;2024-02-14T16:47:12;10.10;99.90
60860;DHT22;46694;54.382;9.708;2024-02-14T16:49:38;10.10;99.90
60860;DHT22;46694;54.382;9.708;2024-02-14T16:52:05;10.10;99.90
60860;DHT22;46694;54.382;9.708;2024-02-14T16:54:32;10.10;99.90
60860;DHT22;46694;54.382;9.708;2024-02-14T16:56:59;10.10;99.90
60860;DHT22;46694;54.382;9.708;2024-02-14T16:59:36;10.10;99.90
60860;DHT22;46694;54.382;9.708;2024-02-14T17:02:11;10.10;99.90
60860;DHT22;46694;54.382;9.708;2024-02-14T17:04:39;10.10;99.90
60860;DHT22;46694;54.382;9.708;2024-02-14T17:07:05;10.10;99.90
60860;DHT22;46694;54.382;9.708;2024-02-14T17:09:31;10.10;99.90
60860;DHT22;46694;54.382;9.708;2024-02-14T17:11:57;10.10;99.90
60860;DHT22;46694;54.382;9.708;2024-02-14T17:14:23;10.10;99.90
60860;DHT22;46694;54.382;9.708;2024-02-14T17:16:50;10.10;99.90
60860;DHT22;46694;54.382;9.708;2024-02-14T17:19:18;10.10;99.90
60860;DHT22;46694;54.382;9.708;2024-02-14T17:21:45;10.10;99.90
60860;DHT22;46694;54.382;9.708;2024-02-14T17:24:11;10.10;99.90
60860;DHT22;46694;54.382;9.708;2024-02-14T17:26:37;10.10;99.90
60860;DHT22;46694;54.382;9.708;2024-02-14T17:29:03;10.20;99.90
60860;DHT22;46694;54.382;9.708;2024-02-14T17:31:29;10.20;99.90
60860;DHT22;46694;54.382;9.708;2024-02-14T17:34:00;10.20;99.90
60860;DHT22;46694;54.382;9.708;2024-02-14T17:36:26;10.20;99.90
60860;DHT22;46694;54.382;9.708;2024-02-14T17:38:52;10.20;99.90
60860;DHT22;46694;54.382;9.708;2024-02-14T17:41:18;10.20;99.90
60860;DHT22;46694;54.382;9.708;2024-02-14T17:43:44;10.20;99.90
60860;DHT22;46694;54.382;9.708;2024-02-14T17:46:10;10.20;99.90
60860;DHT22;46694;54.382;9.708;2024-02-14T17:48:37;10.20;99.90
60860;DHT22;46694;54.382;9.708;2024-02-14T17:51:03;10.20;99.90
60860;DHT22;46694;54.382;9.708;2024-02-14T17:53:29;10.10;99.90
60860;DHT22;46694;54.382;9.708;2024-02-14T17:55:55;10.20;99.90
60860;DHT22;46694;54.382;9.708;2024-02-14T17:58:21;10.20;99.90
60860;DHT22;46694;54.382;9.708;2024-02-14T18:00:48;10.20;99.90
60860;DHT22;46694;54.382;9.708;2024-02-14T18:03:14;10.20;99.90
60860;DHT22;46694;54.382;9.708;2024-02-14T18:05:40;10.20;99.90
60860;DHT22;46694;54.382;9.708;2024-02-14T18:08:09;10.20;99.90
60860;DHT22;46694;54.382;9.708;2024-02-14T18:10:35;10.20;99.90
60860;DHT22;46694;54.382;9.708;2024-02-14T18:13:05;10.20;99.90
60860;DHT22;46694;54.382;9.708;2024-02-14T18:15:31;10.20;99.90
60860;DHT22;46694;54.382;9.708;2024-02-14T18:17:58;10.20;99.90
60860;DHT22;46694;54.382;9.708;2024-02-14T18:20:24;10.20;99.90
60860;DHT22;46694;54.382;9.708;2024-02-14T18:22:50;10.20;99.90
60860;DHT22;46694;54.382;9.708;2024-02-14T18:25:16;10.10;99.90
60860;DHT22;46694;54.382;9.708;2024-02-14T18:27:42;10.10;99.90
60860;DHT22;46694;54.382;9.708;2024-02-14T18:30:08;10.20;99.90
60860;DHT22;46694;54.382;9.708;2024-02-14T18:32:35;10.20;99.90
60860;DHT22;46694;54.382;9.708;2024-02-14T18:35:01;10.20;99.90
60860;DHT22;46694;54.382;9.708;2024-02-14T18:37:29;10.20;99.90
60860;DHT22;46694;54.382;9.708;2024-02-14T18:39:55;10.20;99.90
60860;DHT22;46694;54.382;9.708;2024-02-14T18:42:22;10.20;99.90
60860;DHT22;46694;54.382;9.708;2024-02-14T18:44:48;10.20;99.90
60860;DHT22;46694;54.382;9.708;2024-02-14T18:47:14;10.20;99.90
60860;DHT22;46694;54.382;9.708;2024-02-14T18:49:40;10.10;99.90
60860;DHT22;46694;54.382;9.708;2024-02-14T18:52:11;10.10;99.90
60860;DHT22;46694;54.382;9.708;2024-02-14T18:54:37;10.10;99.90
60860;DHT22;46694;54.382;9.708;2024-02-14T18:57:03;10.10;99.90
60860;DHT22;46694;54.382;9.708;2024-02-14T18:59:36;10.10;99.90
60860;DHT22;46694;54.382;9.708;2024-02-14T19:02:05;10.10;99.90
60860;DHT22;46694;54.382;9.708;2024-02-14T19:04:34;10.10;99.90
60860;DHT22;46694;54.382;9.708;2024-02-14T19:07:01;10.10;99.90
60860;DHT22;46694;54.382;9.708;2024-02-14T19:09:27;10.00;99.90
60860;DHT22;46694;54.382;9.708;2024-02-14T19:11:54;10.00;99.90
60860;DHT22;46694;54.382;9.708;2024-02-14T19:14:20;10.10;99.90
60860;DHT22;46694;54.382;9.708;2024-02-14T19:16:49;10.10;99.90
60860;DHT22;46694;54.382;9.708;2024-02-14T19:19:15;10.10;99.90
60860;DHT22;46694;54.382;9.708;2024-02-14T19:21:42;10.10;99.90
60860;DHT22;46694;54.382;9.708;2024-02-14T19:24:10;10.20;99.90
60860;DHT22;46694;54.382;9.708;2024-02-14T19:26:40;10.10;99.90
60860;DHT22;46694;54.382;9.708;2024-02-14T19:29:05;10.20;99.90
60860;DHT22;46694;54.382;9.708;2024-02-14T19:31:31;10.20;99.90
60860;DHT22;46694;54.382;9.708;2024-02-14T19:33:57;10.30;99.90
60860;DHT22;46694;54.382;9.708;2024-02-14T19:36:23;10.30;99.90
60860;DHT22;46694;54.382;9.708;2024-02-14T19:38:50;10.40;99.90
60860;DHT22;46694;54.382;9.708;2024-02-14T19:41:16;10.40;99.90
60860;DHT22;46694;54.382;9.708;2024-02-14T19:43:42;10.40;99.90
60860;DHT22;46694;54.382;9.708;2024-02-14T19:46:08;10.50;99.90
60860;DHT22;46694;54.382;9.708;2024-02-14T19:48:36;10.50;99.90
60860;DHT22;46694;54.382;9.708;2024-02-14T19:51:03;10.60;99.90
60860;DHT22;46694;54.382;9.708;2024-02-14T19:53:29;10.60;99.90
60860;DHT22;46694;54.382;9.708;2024-02-14T19:55:55;10.60;99.90
60860;DHT22;46694;54.382;9.708;2024-02-14T19:58:23;10.60;99.90
60860;DHT22;46694;54.382;9.708;2024-02-14T20:00:50;10.60;99.90
60860;DHT22;46694;54.382;9.708;2024-02-14T20:03:16;10.70;99.90
60860;DHT22;46694;54.382;9.708;2024-02-14T20:05:41;10.70;99.90
60860;DHT22;46694;54.382;9.708;2024-02-14T20:08:07;10.70;99.90
60860;DHT22;46694;54.382;9.708;2024-02-14T20:10:34;10.70;99.90
60860;DHT22;46694;54.382;9.708;2024-02-14T20:13:00;10.70;99.90
60860;DHT22;46694;54.382;9.708;2024-02-14T20:15:26;10.80;99.90
60860;DHT22;46694;54.382;9.708;2024-02-14T20:17:52;10.80;99.90
60860;DHT22;46694;54.382;9.708;2024-02-14T20:20:18;10.80;99.90
60860;DHT22;46694;54.382;9.708;2024-02-14T20:22:46;10.80;99.90
60860;DHT22;46694;54.382;9.708;2024-02-14T20:25:14;10.80;99.90
60860;DHT22;46694;54.382;9.708;2024-02-14T20:27:40;10.80;99.90
60860;DHT22;46694;54.382;9.708;2024-02-14T20:30:08;10.90;99.90
60860;DHT22;46694;54.382;9.708;2024-02-14T20:32:36;10.90;99.90
60860;DHT22;46694;54.382;9.708;2024-02-14T20:35:06;10.90;99.90
60860;DHT22;46694;54.382;9.708;2024-02-14T20:37:41;10.90;99.90
60860;DHT22;46694;54.382;9.708;2024-02-14T20:40:08;10.90;99.90
60860;DHT22;46694;54.382;9.708;2024-02-14T20:42:34;11.00;99.90
60860;DHT22;46694;54.382;9.708;2024-02-14T20:45:10;11.00;99.90
60860;DHT22;46694;54.382;9.708;2024-02-14T20:47:36;11.00;99.90
60860;DHT22;46694;54.382;9.708;2024-02-14T20:50:03;11.00;99.90
60860;DHT22;46694;54.382;9.708;2024-02-14T20:52:29;11.00;99.90
60860;DHT22;46694;54.382;9.708;2024-02-14T20:54:55;11.00;99.90
60860;DHT22;46694;54.382;9.708;2024-02-14T20:57:22;11.00;99.90
60860;DHT22;46694;54.382;9.708;2024-02-14T20:59:49;11.10;99.90
60860;DHT22;46694;54.382;9.708;2024-02-14T21:02:16;11.00;99.90
60860;DHT22;46694;54.382;9.708;2024-02-14T21:04:43;11.10;99.90
60860;DHT22;46694;54.382;9.708;2024-02-14T21:07:10;11.10;99.90
60860;DHT22;46694;54.382;9.708;2024-02-14T21:09:41;11.10;99.90
60860;DHT22;46694;54.382;9.708;2024-02-14T21:12:07;11.10;99.90
60860;DHT22;46694;54.382;9.708;2024-02-14T21:14:34;11.10;99.90
60860;DHT22;46694;54.382;9.708;2024-02-14T21:16:59;11.20;99.90
60860;DHT22;46694;54.382;9.708;2024-02-14T21:19:25;11.20;99.90
60860;DHT22;46694;54.382;9.708;2024-02-14T21:21:51;11.20;99.90
60860;DHT22;46694;54.382;9.708;2024-02-14T21:24:17;11.20;99.90
60860;DHT22;46694;54.382;9.708;2024-02-14T21:26:43;11.20;99.90
60860;DHT22;46694;54.382;9.708;2024-02-14T21:29:12;11.20;99.90
60860;DHT22;46694;54.382;9.708;2024-02-14T21:31:38;11.20;99.90
60860;DHT22;46694;54.382;9.708;2024-02-14T21:34:03;11.20;99.90
60860;DHT22;46694;54.382;9.708;2024-02-14T21:36:29;11.20;99.90
60860;DHT22;46694;54.382;9.708;2024-02-14T21:38:57;11.20;99.90
60860;DHT22;46694;54.382;9.708;2024-02-14T21:41:23;11.20;99.90
60860;DHT22;46694;54.382;9.708;2024-02-14T21:43:49;11.20;99.90
60860;DHT22;46694;54.382;9.708;2024-02-14T21:46:15;11.20;99.90
60860;DHT22;46694;54.382;9.708;2024-02-14T21:48:41;11.20;99.90
60860;DHT22;46694;54.382;9.708;2024-02-14T21:51:08;11.30;99.90
60860;DHT22;46694;54.382;9.708;2024-02-14T21:53:35;11.20;99.90